A- A+ FrançaisEnglishEspañol中国

le plus proche LFBS Biscarrosse-Parentis LFBT Tarbes-Lourdes-PyrénéesLFKA AlbertvilleLFPM Melun-Villaroche

manche à air

La météo aéronautique pour les pilotes, la préparation du vol avec les METAR (METeorological Aerodrome Report, message d'observation des conditions météorologiques pour l'aviation) et Les TAF (Terminal Aerodrome Forecast : message de prévision à court terme des conditions météorologiques pour l'aviation). Et les autres ressources comme les VAC (Visual Approch Chart) et les NOTAM (Notice To Airman) pour préprer les vols.

Aéroport Moorabin (Australie) / OACI YMMB/ IATA MBW

L'altitude de l'aéroport Moorabin est de 15 m=49 ft. Il est situé à proximité de Melbourne (Australie). La météo générale à 5 jours est disponible pour Braeside situé à 2.9 km.

METAR de l'aéroport Moorabin - YMMB

METAR YMMB 022230Z AUTO 13006KT 9999 // OVC023 19/11 Q1016 RMK RF00.0/000.0

Décodage du METAR de l'aéroport Moorabin (AU)

METAR émis par YMMB le jeudi 2 janvier 2020 à 22:30 heure TU. C'est un METAR généré automatiquement. Attention ce METAR est obsolète car il a été émis il y a 23 heure et 2 minutes.

La visibilité est de supérieure à 10 km=supérieure à 6.2 sm.

La température est de 19°C=66 °F et le point rosée est de 11°C=52 °F . Ce qui correspond à 60% d'humidité relative.

Le QNH est de 1016 hPa=30 inHg

Vent de 6 kt=11 km/h, orienté à 130°.

Nuages : Couverture nuageuse soudée à 2300 ft=700 mètres.

RMK RF000/0000

TAF de l'aéroport Moorabin - YMMB

YMMB 022222Z 0222/0312 14006KT 8000 FU NSC BECMG 0304/0306 19010KT 9999 FU NSC FM030800 12008KT CAVOK PROB40 0222/0304 4000 FU BKN022 PROB30 0308/0312 4000 FU NSC RMK T 18 23 27 31 Q 1016 1013 1009 1005

YMMB 022222Z 0222/0312 14006KT 8000 fumées NSC devenant 0304/0306 19010KT 9999 fumées NSC FM030800 12008KT visibilité supérieure à 10km, aucun nuage à une hauteur inférieure à 5000 ft ou sous l'altitude minimale de secteur et aucun cumulonimbus ou cumulus bourgeonnant, quelle que soit leur altitude probabilité de 40% d'avoir 0222/0304 4000 fumées couverture nuageuse fragmentée à 022 probabilité de 30% d'avoir 0308/0312 4000 fumées NSC remarques T 18 23 27 31 Q 1016 1013 1009 1005

Aéroport à proximité de Moorabin

Météo générale à 5 jours à Braeside (2.9 km)YMPC Aéroport Point Cooke (31 km)YMEN Aéroport Essendon (33 km)YTYA Aéroport Tyabb (33 km)YMML Aéroport Melbourne (41 km)YMAV Aéroport Avalon (56 km)YBSS Aéroport Bacchus Marsh (66 km)

Vue aérienne de l'aéroport Moorabin

NOTAM de l'aéroport Moorabin

Les NOTAM sont fournis sans aucune garantie de leur actualité. Le pilote est le seul responsable de la vérification de sa validité avant de l'utiliser opérationnellement pour préparer un vol ou l'utiliser lors de sa navigation.

Pas de NOTAM

Sources des données